Time;durP1;ratioP1;P1;durP2;ratioP2;P2;SDS_P1;SDS_P2;PMS_P1;PMS_P2;Temp;Humidity;BMP_temperature;BMP_pressure;BME280_temperature;BME280_humidity;BME280_pressure;Samples;Min_cycle;Max_cycle;Signal;HPM_P1;HPM_P2
2023/03/04 00:00:22;;;;;;;8.07;4.70;;;;;;;;;;5055882;28;20039;-79
2023/03/04 00:02:48;;;;;;;7.78;4.32;;;;;;;;;;5055954;28;20036;-79
2023/03/04 00:05:13;;;;;;;8.85;4.82;;;;;;;;;;5038057;28;20040;-79
2023/03/04 00:07:38;;;;;;;8.18;4.88;;;;;;;;;;5050029;28;20508;-80
2023/03/04 00:10:04;;;;;;;7.97;5.28;;;;;;;;;;5034827;28;20032;-79
2023/03/04 00:12:30;;;;;;;9.43;5.28;;;;;;;;;;5052361;28;20442;-79
2023/03/04 00:14:55;;;;;;;9.73;5.15;;;;;;;;;;5052722;28;20060;-79
2023/03/04 00:17:21;;;;;;;9.40;5.50;;;;;;;;;;5034647;28;20025;-79
2023/03/04 00:19:46;;;;;;;9.00;5.30;;;;;;;;;;5052508;28;20033;-79
2023/03/04 00:22:12;;;;;;;10.93;5.40;;;;;;;;;;5052476;28;20071;-79
2023/03/04 00:24:37;;;;;;;7.70;5.18;;;;;;;;;;5052351;28;20060;-79
2023/03/04 00:27:03;;;;;;;8.00;5.35;;;;;;;;;;5034351;28;20033;-79
2023/03/04 00:29:28;;;;;;;9.48;6.05;;;;;;;;;;5052829;28;20047;-80
2023/03/04 00:31:53;;;;;;;10.30;5.93;;;;;;;;;;5052278;28;20068;-79
2023/03/04 00:34:19;;;;;;;9.68;5.45;;;;;;;;;;5052736;28;20377;-79
2023/03/04 00:36:45;;;;;;;9.02;5.45;;;;;;;;;;5034262;28;20039;-79
2023/03/04 00:39:11;;;;;;;8.55;5.63;;;;;;;;;;5052572;28;20037;-79
2023/03/04 00:41:36;;;;;;;9.30;5.55;;;;;;;;;;5034026;28;20091;-80
2023/03/04 00:44:02;;;;;;;7.80;5.40;;;;;;;;;;5052446;28;20159;-79
2023/03/04 00:46:27;;;;;;;10.68;6.00;;;;;;;;;;5017902;28;20040;-79
2023/03/04 00:48:53;;;;;;;7.35;4.88;;;;;;;;;;5034046;28;20043;-79
2023/03/04 00:51:18;;;;;;;9.88;5.43;;;;;;;;;;5052080;28;20120;-79
2023/03/04 00:53:44;;;;;;;8.30;5.63;;;;;;;;;;5037070;28;20087;-79
2023/03/04 00:56:09;;;;;;;8.85;5.10;;;;;;;;;;5052089;28;20041;-79
2023/03/04 00:58:34;;;;;;;7.43;4.78;;;;;;;;;;5050610;28;20029;-79
2023/03/04 01:01:00;;;;;;;7.88;4.72;;;;;;;;;;5051886;28;20036;-79
2023/03/04 01:03:28;;;;;;;9.05;5.10;;;;;;;;;;5033820;28;20037;-79
2023/03/04 01:05:54;;;;;;;7.32;5.00;;;;;;;;;;5051797;28;20556;-79
2023/03/04 01:08:20;;;;;;;8.32;5.03;;;;;;;;;;5051751;28;20039;-79
2023/03/04 01:10:47;;;;;;;7.80;5.18;;;;;;;;;;5050663;28;20026;-79
2023/03/04 01:13:12;;;;;;;7.15;4.95;;;;;;;;;;5052042;28;20090;-79
2023/03/04 01:15:38;;;;;;;7.10;5.40;;;;;;;;;;5050133;28;20021;-79
2023/03/04 01:18:04;;;;;;;7.88;5.43;;;;;;;;;;5051394;28;20036;-79
2023/03/04 01:20:29;;;;;;;8.75;6.05;;;;;;;;;;5051461;28;20089;-79
2023/03/04 01:22:55;;;;;;;10.93;5.30;;;;;;;;;;5051479;28;20032;-79
2023/03/04 01:25:20;;;;;;;9.85;5.90;;;;;;;;;;5051530;28;20095;-79
2023/03/04 01:27:46;;;;;;;8.73;6.10;;;;;;;;;;5049879;28;20033;-79
2023/03/04 01:30:11;;;;;;;11.45;6.10;;;;;;;;;;5051284;28;20025;-79
2023/03/04 01:32:37;;;;;;;10.93;5.88;;;;;;;;;;5050383;28;20044;-79
2023/03/04 01:35:02;;;;;;;10.80;6.72;;;;;;;;;;5049950;28;20565;-79
2023/03/04 01:37:28;;;;;;;8.60;5.63;;;;;;;;;;5050950;28;20120;-79
2023/03/04 01:39:54;;;;;;;9.35;6.13;;;;;;;;;;5033223;28;20108;-79
2023/03/04 01:42:20;;;;;;;7.82;5.75;;;;;;;;;;5033318;28;20068;-79
2023/03/04 01:44:45;;;;;;;;;;;;;;;;;;5050259;28;20029;-79
2023/03/04 01:47:11;;;;;;;11.10;6.38;;;;;;;;;;5049400;28;19920;-79
2023/03/04 01:49:36;;;;;;;8.80;5.45;;;;;;;;;;5030050;28;20439;-79
2023/03/04 01:52:02;;;;;;;10.93;5.40;;;;;;;;;;5047237;28;20391;-79
2023/03/04 01:54:27;;;;;;;7.18;5.60;;;;;;;;;;5049757;28;20048;-79
2023/03/04 01:56:53;;;;;;;7.70;5.72;;;;;;;;;;5049347;28;20033;-79
2023/03/04 01:59:19;;;;;;;11.57;5.93;;;;;;;;;;5029816;28;20025;-78
2023/03/04 02:01:45;;;;;;;10.82;5.40;;;;;;;;;;5045748;28;20036;-79
2023/03/04 02:04:11;;;;;;;9.57;5.57;;;;;;;;;;5049743;28;20104;-79
2023/03/04 02:06:37;;;;;;;10.50;5.68;;;;;;;;;;5050468;28;20115;-79
2023/03/04 02:09:02;;;;;;;9.35;5.38;;;;;;;;;;5049631;28;20051;-79
2023/03/04 02:11:28;;;;;;;10.55;5.75;;;;;;;;;;5032498;28;20035;-79
2023/03/04 02:13:53;;;;;;;8.02;5.32;;;;;;;;;;5050731;28;20107;-80
2023/03/04 02:16:19;;;;;;;8.75;5.80;;;;;;;;;;5031226;28;20033;-80
2023/03/04 02:18:44;;;;;;;7.60;5.57;;;;;;;;;;5049434;28;20480;-80
2023/03/04 02:21:16;;;;;;;11.35;6.00;;;;;;;;;;5030586;28;20037;-80
2023/03/04 02:23:42;;;;;;;10.55;5.70;;;;;;;;;;5049347;28;20068;-80
2023/03/04 02:26:14;;;;;;;8.80;5.53;;;;;;;;;;5048948;28;20460;-80
2023/03/04 02:28:39;;;;;;;12.88;5.75;;;;;;;;;;5049000;28;20041;-80
2023/03/04 02:31:05;;;;;;;9.07;5.28;;;;;;;;;;5048419;28;20028;-80
2023/03/04 02:33:32;;;;;;;7.55;5.22;;;;;;;;;;5049389;28;20036;-80
2023/03/04 02:35:57;;;;;;;9.80;6.40;;;;;;;;;;5048802;28;20397;-80
2023/03/04 02:38:23;;;;;;;7.60;5.20;;;;;;;;;;5032548;28;20037;-80
2023/03/04 02:40:49;;;;;;;8.73;5.60;;;;;;;;;;5048526;28;20070;-80
2023/03/04 02:43:14;;;;;;;7.75;4.60;;;;;;;;;;5049056;28;20036;-80
2023/03/04 02:45:40;;;;;;;11.35;5.68;;;;;;;;;;5032220;28;20530;-80
2023/03/04 02:48:06;;;;;;;9.43;5.53;;;;;;;;;;5049151;28;20033;-80
2023/03/04 02:50:33;;;;;;;10.15;5.32;;;;;;;;;;5048520;28;20027;-80
2023/03/04 02:52:59;;;;;;;9.05;5.15;;;;;;;;;;5032539;28;20503;-79
2023/03/04 02:55:24;;;;;;;9.30;5.32;;;;;;;;;;5050332;28;20126;-80
2023/03/04 02:57:50;;;;;;;8.02;5.10;;;;;;;;;;5051295;28;20060;-79
2023/03/04 03:00:16;;;;;;;8.20;5.60;;;;;;;;;;5050135;28;20475;-79
2023/03/04 03:02:41;;;;;;;7.28;4.88;;;;;;;;;;5051783;28;20556;-79
2023/03/04 03:05:07;;;;;;;9.68;5.68;;;;;;;;;;5033481;28;20032;-79
2023/03/04 03:07:37;;;;;;;8.25;4.15;;;;;;;;;;5050790;28;20101;-79
2023/03/04 03:10:03;;;;;;;6.00;4.22;;;;;;;;;;5050345;28;20040;-79
2023/03/04 03:12:29;;;;;;;7.35;4.90;;;;;;;;;;5051390;28;20123;-79
2023/03/04 03:14:54;;;;;;;8.77;4.22;;;;;;;;;;5031478;28;20104;-80
2023/03/04 03:17:22;;;;;;;7.40;4.85;;;;;;;;;;5041937;28;20064;-79
2023/03/04 03:19:47;;;;;;;7.20;4.38;;;;;;;;;;5047974;28;20041;-79
2023/03/04 03:22:13;;;;;;;9.23;4.40;;;;;;;;;;5049896;28;20041;-79
2023/03/04 03:24:39;;;;;;;10.38;4.60;;;;;;;;;;5048546;28;20032;-79
2023/03/04 03:27:04;;;;;;;5.88;4.10;;;;;;;;;;5059215;28;20048;-79
2023/03/04 03:29:30;;;;;;;9.90;4.15;;;;;;;;;;5028227;28;20110;-79
2023/03/04 03:31:56;;;;;;;6.55;4.05;;;;;;;;;;5031972;28;20036;-79
2023/03/04 03:34:21;;;;;;;6.38;4.30;;;;;;;;;;5062875;28;20095;-79
2023/03/04 03:36:47;;;;;;;7.47;4.05;;;;;;;;;;5009195;28;20032;-79
2023/03/04 03:39:14;;;;;;;6.43;4.20;;;;;;;;;;5050822;28;20398;-79
2023/03/04 03:41:40;;;;;;;9.80;4.30;;;;;;;;;;5069799;28;20064;-79
2023/03/04 03:44:05;;;;;;;6.82;4.72;;;;;;;;;;5054806;28;20583;-79
2023/03/04 03:46:31;;;;;;;7.18;5.05;;;;;;;;;;5055527;28;20041;-79
2023/03/04 03:48:56;;;;;;;7.90;4.78;;;;;;;;;;5055022;28;20416;-80
2023/03/04 03:51:22;;;;;;;8.65;4.40;;;;;;;;;;5072976;28;20037;-80
2023/03/04 03:53:47;;;;;;;8.63;4.93;;;;;;;;;;5072495;28;20047;-79
2023/03/04 03:56:13;;;;;;;7.97;5.18;;;;;;;;;;5045705;28;20120;-79
2023/03/04 03:58:38;;;;;;;8.05;5.05;;;;;;;;;;5055908;28;20058;-79
2023/03/04 04:01:04;;;;;;;5.82;4.63;;;;;;;;;;5063574;28;20410;-80
2023/03/04 04:03:29;;;;;;;8.57;4.22;;;;;;;;;;5053124;28;20055;-79
2023/03/04 04:05:55;;;;;;;7.07;4.80;;;;;;;;;;5035432;28;20061;-79
2023/03/04 04:08:20;;;;;;;7.68;4.65;;;;;;;;;;5035490;28;20024;-79
2023/03/04 04:10:46;;;;;;;6.53;4.38;;;;;;;;;;5015224;28;20041;-79
2023/03/04 04:13:11;;;;;;;6.85;4.50;;;;;;;;;;5049841;28;20024;-78
2023/03/04 04:15:37;;;;;;;8.35;4.43;;;;;;;;;;5053308;28;20033;-79
2023/03/04 04:18:03;;;;;;;8.57;4.60;;;;;;;;;;5047885;28;20593;-79
2023/03/04 04:20:28;;;;;;;7.03;4.30;;;;;;;;;;5061906;28;20032;-78
2023/03/04 04:22:54;;;;;;;7.53;4.70;;;;;;;;;;5053482;28;20033;-79
2023/03/04 04:25:19;;;;;;;7.05;4.45;;;;;;;;;;5071808;28;20399;-79
2023/03/04 04:27:45;;;;;;;8.75;5.00;;;;;;;;;;5070497;28;20089;-79
2023/03/04 04:30:10;;;;;;;7.82;4.97;;;;;;;;;;5071405;28;20140;-79
2023/03/04 04:32:36;;;;;;;7.68;4.80;;;;;;;;;;5052902;28;20032;-79
2023/03/04 04:35:01;;;;;;;9.32;5.10;;;;;;;;;;5071772;28;20037;-79
2023/03/04 04:37:27;;;;;;;7.53;4.70;;;;;;;;;;5053373;28;20028;-79
2023/03/04 04:39:54;;;;;;;8.68;4.50;;;;;;;;;;5071603;28;20029;-79
2023/03/04 04:42:20;;;;;;;10.18;5.00;;;;;;;;;;5070333;28;20123;-80
2023/03/04 04:44:45;;;;;;;8.10;4.47;;;;;;;;;;5071639;28;20119;-79
2023/03/04 04:47:10;;;;;;;7.57;4.70;;;;;;;;;;5070438;28;20556;-79
2023/03/04 04:49:36;;;;;;;8.88;5.32;;;;;;;;;;5071728;28;20558;-79
2023/03/04 04:52:02;;;;;;;7.70;5.47;;;;;;;;;;5070432;28;20028;-79
2023/03/04 04:54:27;;;;;;;7.13;5.13;;;;;;;;;;5053142;28;20053;-79
2023/03/04 04:56:52;;;;;;;8.60;5.22;;;;;;;;;;5071185;28;20045;-79
2023/03/04 04:59:18;;;;;;;6.70;4.40;;;;;;;;;;5072270;28;20117;-79
2023/03/04 05:01:43;;;;;;;6.18;4.35;;;;;;;;;;5057742;28;20392;-79
2023/03/04 05:04:09;;;;;;;7.03;4.65;;;;;;;;;;5071835;28;20036;-80
2023/03/04 05:06:34;;;;;;;8.38;4.70;;;;;;;;;;5051705;28;20117;-79
2023/03/04 05:09:01;;;;;;;7.32;4.72;;;;;;;;;;5052327;28;20469;-78
2023/03/04 05:11:26;;;;;;;;;;;;;;;;;;5048823;28;20510;-79
2023/03/04 05:13:51;;;;;;;7.40;4.30;;;;;;;;;;5053821;28;20001;-79
2023/03/04 05:16:17;;;;;;;6.28;4.20;;;;;;;;;;5057294;28;20051;-78
2023/03/04 05:18:42;;;;;;;9.18;4.50;;;;;;;;;;5034584;28;20033;-79
2023/03/04 05:21:08;;;;;;;7.97;6.40;;;;;;;;;;5034231;28;20025;-80
2023/03/04 05:23:34;;;;;;;8.25;5.57;;;;;;;;;;5034332;28;20032;-80
2023/03/04 05:25:59;;;;;;;;;;;;;;;;;;5034218;28;20120;-80
2023/03/04 05:28:25;;;;;;;7.60;5.85;;;;;;;;;;5052020;28;20397;-80
2023/03/04 05:30:50;;;;;;;7.50;4.22;;;;;;;;;;5046720;28;20376;-80
2023/03/04 05:33:16;;;;;;;6.45;3.55;;;;;;;;;;5034236;28;20479;-80
2023/03/04 05:35:42;;;;;;;7.35;3.47;;;;;;;;;;5046952;28;20090;-80
2023/03/04 05:38:08;;;;;;;4.85;3.15;;;;;;;;;;5041792;28;20036;-80
2023/03/04 05:40:33;;;;;;;;;;;;;;;;;;5052123;28;20202;-78
2023/03/04 05:42:59;;;;;;;4.72;2.42;;;;;;;;;;5051468;28;20036;-80
2023/03/04 05:45:25;;;;;;;4.57;2.63;;;;;;;;;;5051238;28;20029;-80
2023/03/04 05:47:50;;;;;;;3.22;1.95;;;;;;;;;;5033772;28;20116;-79
2023/03/04 05:50:15;;;;;;;6.07;2.20;;;;;;;;;;5052020;28;20047;-79
2023/03/04 05:52:41;;;;;;;4.60;1.70;;;;;;;;;;5051409;28;20155;-79
2023/03/04 05:55:07;;;;;;;4.07;2.00;;;;;;;;;;5050743;28;20053;-78
2023/03/04 05:57:32;;;;;;;3.65;1.75;;;;;;;;;;5051373;28;20432;-80
2023/03/04 05:59:58;;;;;;;3.92;1.95;;;;;;;;;;5032994;28;20021;-80
2023/03/04 06:02:23;;;;;;;4.03;1.80;;;;;;;;;;5050769;28;20511;-80
2023/03/04 06:04:48;;;;;;;3.63;1.77;;;;;;;;;;5031954;28;20064;-80
2023/03/04 06:07:14;;;;;;;3.97;2.10;;;;;;;;;;5033144;28;20147;-80
2023/03/04 06:09:39;;;;;;;3.03;1.70;;;;;;;;;;5051230;28;20028;-78
2023/03/04 06:12:05;;;;;;;3.15;1.60;;;;;;;;;;5032966;28;20045;-79
2023/03/04 06:14:30;;;;;;;3.22;1.88;;;;;;;;;;5050877;28;20090;-79
2023/03/04 06:16:56;;;;;;;2.90;1.52;;;;;;;;;;5032633;28;20147;-79
2023/03/04 06:19:21;;;;;;;3.95;1.60;;;;;;;;;;5050967;28;20505;-80
2023/03/04 06:21:47;;;;;;;2.70;1.48;;;;;;;;;;5050186;28;20029;-78
2023/03/04 06:24:12;;;;;;;2.40;1.50;;;;;;;;;;5050923;28;20503;-79
2023/03/04 06:26:38;;;;;;;2.38;1.45;;;;;;;;;;5012764;28;20033;-79
2023/03/04 06:29:04;;;;;;;3.00;1.67;;;;;;;;;;5026146;28;20021;-79
2023/03/04 06:31:29;;;;;;;2.38;1.75;;;;;;;;;;5050088;28;20116;-79
2023/03/04 06:33:54;;;;;;;2.80;1.83;;;;;;;;;;5032648;28;20056;-80
2023/03/04 06:36:20;;;;;;;2.40;1.65;;;;;;;;;;5032397;28;20111;-79
2023/03/04 06:38:45;;;;;;;3.10;2.05;;;;;;;;;;5016232;28;20040;-79
2023/03/04 06:41:11;;;;;;;5.22;2.00;;;;;;;;;;5016226;28;20033;-79
2023/03/04 06:43:37;;;;;;;2.90;1.60;;;;;;;;;;5033112;28;20555;-79
2023/03/04 06:46:02;;;;;;;3.05;1.95;;;;;;;;;;5032471;28;20052;-79
2023/03/04 06:48:27;;;;;;;2.63;1.70;;;;;;;;;;5050608;28;20064;-79
2023/03/04 06:50:53;;;;;;;3.50;1.80;;;;;;;;;;5049791;28;20049;-79
2023/03/04 06:53:18;;;;;;;3.03;2.10;;;;;;;;;;5035578;28;20083;-79
2023/03/04 06:55:44;;;;;;;4.13;2.25;;;;;;;;;;5068749;28;20510;-79
2023/03/04 06:58:09;;;;;;;2.78;1.90;;;;;;;;;;5069897;28;20410;-79
2023/03/04 07:00:35;;;;;;;2.78;1.88;;;;;;;;;;5050438;28;20025;-79
2023/03/04 07:03:00;;;;;;;2.88;1.90;;;;;;;;;;5051472;28;20406;-79
2023/03/04 07:05:26;;;;;;;3.42;2.03;;;;;;;;;;5068364;28;20115;-78
2023/03/04 07:07:51;;;;;;;2.80;1.88;;;;;;;;;;5069786;28;20119;-78
2023/03/04 07:10:17;;;;;;;3.60;2.00;;;;;;;;;;5068974;28;20066;-80
2023/03/04 07:12:43;;;;;;;4.07;2.30;;;;;;;;;;5051478;28;20055;-79
2023/03/04 07:15:08;;;;;;;3.85;2.10;;;;;;;;;;5029435;28;20037;-79
2023/03/04 07:17:34;;;;;;;4.88;2.40;;;;;;;;;;5066066;28;20032;-79
2023/03/04 07:19:59;;;;;;;6.63;2.30;;;;;;;;;;5073827;28;20025;-79
2023/03/04 07:22:25;;;;;;;4.53;2.55;;;;;;;;;;5073980;28;20039;-79
2023/03/04 07:24:50;;;;;;;4.18;2.58;;;;;;;;;;5037289;28;20492;-79
2023/03/04 07:27:16;;;;;;;5.35;2.60;;;;;;;;;;5036502;28;20029;-79
2023/03/04 07:29:41;;;;;;;4.07;2.60;;;;;;;;;;5019390;28;20040;-80
2023/03/04 07:32:07;;;;;;;5.43;2.88;;;;;;;;;;5031689;28;20029;-80
2023/03/04 07:34:33;;;;;;;4.15;2.78;;;;;;;;;;5055205;28;20032;-80
2023/03/04 07:36:58;;;;;;;3.33;2.60;;;;;;;;;;5073592;28;20036;-79
2023/03/04 07:39:24;;;;;;;5.25;2.80;;;;;;;;;;5071972;28;20558;-80
2023/03/04 07:41:49;;;;;;;3.85;2.75;;;;;;;;;;5073104;28;20036;-79
2023/03/04 07:44:14;;;;;;;3.63;2.35;;;;;;;;;;5072023;28;20033;-80
2023/03/04 07:46:40;;;;;;;4.88;2.42;;;;;;;;;;5072607;28;20032;-80
2023/03/04 07:49:05;;;;;;;4.00;2.70;;;;;;;;;;5054109;28;20174;-79
2023/03/04 07:51:31;;;;;;;5.18;2.50;;;;;;;;;;5054888;28;20115;-80
2023/03/04 07:53:57;;;;;;;5.70;2.72;;;;;;;;;;5072202;28;20048;-80
2023/03/04 07:56:24;;;;;;;6.05;2.50;;;;;;;;;;5072662;28;20067;-79
2023/03/04 07:58:52;;;;;;;4.57;2.53;;;;;;;;;;5071700;28;20509;-80
2023/03/04 08:01:21;;;;;;;5.85;3.00;;;;;;;;;;5038660;28;20036;-80
2023/03/04 08:03:47;;;;;;;5.20;2.60;;;;;;;;;;5053422;28;20037;-80
2023/03/04 08:06:13;;;;;;;8.25;2.78;;;;;;;;;;5073489;28;20032;-80
2023/03/04 08:08:38;;;;;;;;;;;;;;;;;;5054285;28;20406;-80
2023/03/04 08:11:04;;;;;;;6.05;2.70;;;;;;;;;;5054422;28;19908;-80
2023/03/04 08:13:31;;;;;;;7.38;3.42;;;;;;;;;;5054531;28;20044;-80
2023/03/04 08:15:56;;;;;;;7.28;3.30;;;;;;;;;;5044080;28;20530;-80
2023/03/04 08:18:22;;;;;;;7.97;3.40;;;;;;;;;;5058205;28;20033;-80
2023/03/04 08:20:47;;;;;;;5.35;3.00;;;;;;;;;;5060866;28;20090;-80
2023/03/04 08:23:12;;;;;;;6.72;3.30;;;;;;;;;;5066042;28;20392;-80
2023/03/04 08:25:38;;;;;;;7.15;3.92;;;;;;;;;;5052462;28;20068;-80
2023/03/04 08:28:04;;;;;;;11.15;4.05;;;;;;;;;;5052497;28;20036;-79
2023/03/04 08:30:29;;;;;;;11.90;5.43;;;;;;;;;;5053098;28;20364;-80
2023/03/04 08:32:55;;;;;;;7.95;4.13;;;;;;;;;;5053755;28;20039;-80
2023/03/04 08:35:20;;;;;;;6.45;3.67;;;;;;;;;;5053278;28;20044;-80
2023/03/04 08:37:46;;;;;;;9.00;3.80;;;;;;;;;;5053823;28;20036;-80
2023/03/04 08:40:12;;;;;;;8.27;4.25;;;;;;;;;;5053373;28;20032;-80
2023/03/04 08:42:37;;;;;;;8.80;4.15;;;;;;;;;;5020166;28;20079;-80
2023/03/04 08:45:03;;;;;;;8.45;4.22;;;;;;;;;;5053939;28;20076;-79
2023/03/04 08:47:28;;;;;;;8.98;4.32;;;;;;;;;;5054224;28;20029;-80
2023/03/04 08:49:54;;;;;;;8.25;4.47;;;;;;;;;;5053045;28;20028;-80
2023/03/04 08:52:19;;;;;;;8.85;4.32;;;;;;;;;;5035872;28;20041;-79
2023/03/04 08:54:44;;;;;;;9.90;4.15;;;;;;;;;;5052204;28;20530;-79
2023/03/04 08:57:10;;;;;;;9.93;4.57;;;;;;;;;;5052166;28;20174;-79
2023/03/04 08:59:35;;;;;;;12.75;4.82;;;;;;;;;;5052055;28;20033;-80
2023/03/04 09:02:01;;;;;;;9.82;4.68;;;;;;;;;;5052021;28;20071;-81
2023/03/04 09:04:26;;;;;;;6.18;4.75;;;;;;;;;;5052445;28;20032;-80
2023/03/04 09:06:52;;;;;;;9.13;4.60;;;;;;;;;;5033865;28;20052;-80
2023/03/04 09:09:18;;;;;;;10.02;5.25;;;;;;;;;;5018164;28;20032;-80
2023/03/04 09:11:43;;;;;;;11.05;5.15;;;;;;;;;;5051659;28;20040;-80
2023/03/04 09:14:08;;;;;;;9.32;5.47;;;;;;;;;;5052025;28;20037;-80
2023/03/04 09:16:34;;;;;;;7.85;5.40;;;;;;;;;;5052112;28;20032;-81
2023/03/04 09:18:59;;;;;;;8.40;5.50;;;;;;;;;;5052610;28;20067;-81
2023/03/04 09:21:25;;;;;;;11.05;6.45;;;;;;;;;;5034393;28;20048;-82
2023/03/04 09:23:50;;;;;;;9.60;6.65;;;;;;;;;;5051955;28;20431;-81
2023/03/04 09:26:18;;;;;;;10.45;7.30;;;;;;;;;;5033873;28;20078;-82
2023/03/04 09:28:44;;;;;;;8.27;5.97;;;;;;;;;;5034323;28;20029;-81
2023/03/04 09:31:10;;;;;;;12.25;6.43;;;;;;;;;;5017700;28;20510;-81
2023/03/04 09:33:36;;;;;;;9.90;6.05;;;;;;;;;;5017501;28;20112;-81
2023/03/04 09:36:01;;;;;;;9.77;6.75;;;;;;;;;;5034002;28;20112;-80
2023/03/04 09:38:27;;;;;;;8.98;6.57;;;;;;;;;;5051890;28;20071;-81
2023/03/04 09:40:52;;;;;;;9.55;6.57;;;;;;;;;;5033590;28;20033;-82
2023/03/04 09:43:19;;;;;;;8.43;5.97;;;;;;;;;;5051809;28;20074;-81
2023/03/04 09:45:46;;;;;;;8.70;5.93;;;;;;;;;;5017375;28;20055;-81
2023/03/04 09:48:12;;;;;;;15.25;5.70;;;;;;;;;;5033581;28;20051;-81
2023/03/04 09:50:37;;;;;;;;;;;;;;;;;;5034044;28;20040;-81
2023/03/04 09:53:06;;;;;;;6.72;5.63;;;;;;;;;;5051878;28;19912;-81
2023/03/04 09:55:39;;;;;;;10.43;6.47;;;;;;;;;;5053210;28;20033;-81
2023/03/04 09:58:23;;;;;;;8.32;5.97;;;;;;;;;;5052927;28;20071;-81
2023/03/04 10:01:18;;;;;;;7.53;5.43;;;;;;;;;;5070204;28;20036;-81
2023/03/04 10:04:02;;;;;;;8.38;5.57;;;;;;;;;;4981296;28;20078;-81
2023/03/04 10:06:28;;;;;;;9.45;6.28;;;;;;;;;;5052770;28;20032;-81
2023/03/04 10:08:53;;;;;;;7.93;5.25;;;;;;;;;;5053217;28;20024;-82
2023/03/04 10:11:23;;;;;;;8.90;6.40;;;;;;;;;;5034313;28;20150;-81
2023/03/04 10:14:12;;;;;;;9.68;6.57;;;;;;;;;;5051550;28;20107;-81
2023/03/04 10:16:47;;;;;;;7.90;6.00;;;;;;;;;;5025976;28;20048;-81
2023/03/04 10:19:12;;;;;;;9.30;6.30;;;;;;;;;;5059175;28;20029;-81
2023/03/04 10:21:40;;;;;;;7.78;6.22;;;;;;;;;;5051023;28;20150;-80
2023/03/04 10:24:13;;;;;;;11.55;6.82;;;;;;;;;;5045210;28;20122;-81
2023/03/04 10:26:39;;;;;;;9.20;6.90;;;;;;;;;;5026489;28;20040;-81
2023/03/04 10:29:06;;;;;;;;;;;;;;;;;;5044782;28;20513;-81
2023/03/04 10:31:37;;;;;;;7.97;6.30;;;;;;;;;;5051437;28;20015;-81
2023/03/04 10:34:03;;;;;;;10.63;6.97;;;;;;;;;;5051240;28;20052;-81
2023/03/04 10:36:28;;;;;;;9.10;6.65;;;;;;;;;;5016823;28;20025;-82
2023/03/04 10:39:16;;;;;;;8.00;6.28;;;;;;;;;;5051842;28;20487;-81
2023/03/04 10:41:42;;;;;;;8.15;6.30;;;;;;;;;;5033348;28;20116;-81
2023/03/04 10:44:08;;;;;;;8.90;6.50;;;;;;;;;;5034524;28;20021;-82
2023/03/04 10:46:39;;;;;;;9.05;6.75;;;;;;;;;;5051638;28;20033;-81
2023/03/04 10:49:05;;;;;;;8.10;6.22;;;;;;;;;;5018075;28;20067;-81
2023/03/04 10:51:30;;;;;;;9.68;7.00;;;;;;;;;;5016458;28;20459;-81
2023/03/04 10:53:59;;;;;;;8.13;7.22;;;;;;;;;;5050844;28;20495;-81
2023/03/04 10:56:34;;;;;;;10.57;6.75;;;;;;;;;;5050680;28;20181;-81
2023/03/04 10:59:18;;;;;;;9.40;7.28;;;;;;;;;;5050037;28;20503;-81
2023/03/04 11:01:43;;;;;;;8.10;7.20;;;;;;;;;;5050057;28;20071;-81
2023/03/04 11:04:16;;;;;;;10.60;7.55;;;;;;;;;;5032733;28;20053;-80
2023/03/04 11:06:42;;;;;;;8.27;7.15;;;;;;;;;;5049769;28;20492;-80
2023/03/04 11:09:10;;;;;;;8.43;7.50;;;;;;;;;;5050416;28;20036;-80
2023/03/04 11:11:36;;;;;;;8.23;7.38;;;;;;;;;;5015234;28;20090;-79
2023/03/04 11:14:03;;;;;;;8.45;7.25;;;;;;;;;;5050153;28;20025;-80
2023/03/04 11:16:29;;;;;;;8.52;7.18;;;;;;;;;;5049678;28;20138;-81
2023/03/04 11:19:14;;;;;;;8.77;7.35;;;;;;;;;;5050265;28;20029;-81
2023/03/04 11:21:39;;;;;;;8.85;7.95;;;;;;;;;;5015928;28;20087;-80
2023/03/04 11:24:05;;;;;;;9.05;7.95;;;;;;;;;;5032098;28;20032;-80
2023/03/04 11:26:31;;;;;;;;;;;;;;;;;;5032306;28;20032;-81
2023/03/04 11:29:01;;;;;;;10.15;8.02;;;;;;;;;;5031885;28;19909;-80
2023/03/04 11:31:27;;;;;;;9.98;7.60;;;;;;;;;;5031568;28;20136;-81
2023/03/04 11:33:58;;;;;;;9.02;8.00;;;;;;;;;;5015414;28;20087;-81
2023/03/04 11:36:23;;;;;;;10.52;8.00;;;;;;;;;;5050104;28;20040;-81
2023/03/04 11:38:49;;;;;;;11.23;8.60;;;;;;;;;;5049237;28;20025;-81
2023/03/04 11:41:18;;;;;;;10.73;8.93;;;;;;;;;;5032160;28;20070;-83
2023/03/04 11:43:44;;;;;;;10.35;8.70;;;;;;;;;;5032078;28;20041;-81
2023/03/04 11:46:34;;;;;;;10.98;9.35;;;;;;;;;;5032463;28;20067;-81
2023/03/04 11:49:15;;;;;;;11.35;8.85;;;;;;;;;;5049663;28;20116;-81
2023/03/04 11:51:59;;;;;;;13.25;9.57;;;;;;;;;;5032033;28;20041;-81
2023/03/04 11:54:25;;;;;;;12.20;9.32;;;;;;;;;;5050125;28;20111;-81
2023/03/04 11:56:52;;;;;;;11.07;9.38;;;;;;;;;;5050212;28;20894;-81
2023/03/04 11:59:25;;;;;;;11.88;9.25;;;;;;;;;;5032257;28;20029;-81
2023/03/04 12:01:57;;;;;;;10.82;9.52;;;;;;;;;;4998763;28;20408;-81
2023/03/04 12:04:31;;;;;;;11.95;9.35;;;;;;;;;;5052879;28;20037;-82
2023/03/04 12:07:00;;;;;;;12.38;10.60;;;;;;;;;;5051735;28;20037;-81
2023/03/04 12:09:35;;;;;;;13.25;10.85;;;;;;;;;;5053049;28;20040;-81
2023/03/04 12:12:04;;;;;;;13.70;10.45;;;;;;;;;;5040827;28;20072;-81
2023/03/04 12:14:56;;;;;;;12.10;10.88;;;;;;;;;;5018672;28;20069;-81
2023/03/04 12:17:28;;;;;;;12.13;10.43;;;;;;;;;;5027454;28;20045;-80
2023/03/04 12:20:13;;;;;;;11.73;9.65;;;;;;;;;;5053045;28;20033;-80
2023/03/04 12:22:56;;;;;;;10.98;9.88;;;;;;;;;;5052381;28;20487;-80
2023/03/04 12:25:34;;;;;;;12.23;9.80;;;;;;;;;;5052820;28;20029;-81
2023/03/04 12:28:18;;;;;;;11.82;9.80;;;;;;;;;;5052627;28;20033;-81
2023/03/04 12:31:02;;;;;;;13.60;10.77;;;;;;;;;;5034155;28;20033;-80
2023/03/04 12:33:43;;;;;;;12.32;10.63;;;;;;;;;;5053129;28;20365;-81
2023/03/04 12:36:16;;;;;;;12.35;11.05;;;;;;;;;;5034317;28;20067;-81
2023/03/04 12:39:00;;;;;;;14.70;11.45;;;;;;;;;;5034909;28;20039;-81
2023/03/04 12:41:28;;;;;;;13.40;11.30;;;;;;;;;;5020199;28;20036;-81
2023/03/04 12:43:57;;;;;;;13.95;11.70;;;;;;;;;;5048067;28;20029;-81
2023/03/04 12:46:26;;;;;;;12.73;11.15;;;;;;;;;;5034718;28;20061;-81
2023/03/04 12:48:55;;;;;;;13.07;11.40;;;;;;;;;;5051926;28;20437;-81
2023/03/04 12:51:25;;;;;;;13.48;11.02;;;;;;;;;;5017728;28;20040;-81
2023/03/04 12:53:55;;;;;;;11.75;10.27;;;;;;;;;;5024909;28;20048;-81
2023/03/04 12:56:20;;;;;;;12.63;10.52;;;;;;;;;;5072733;28;20043;-81
2023/03/04 12:58:46;;;;;;;13.55;11.48;;;;;;;;;;5071110;28;20491;-81
2023/03/04 13:01:15;;;;;;;15.27;11.82;;;;;;;;;;5071633;28;20044;-81
2023/03/04 13:04:02;;;;;;;12.85;11.55;;;;;;;;;;5037428;28;20053;-81
2023/03/04 13:06:45;;;;;;;12.70;10.53;;;;;;;;;;5069911;28;20037;-81
2023/03/04 13:09:26;;;;;;;27.45;19.33;;;;;;;;;;5061927;28;20395;-81
2023/03/04 13:11:52;;;;;;;56.58;31.00;;;;;;;;;;5052398;28;20043;-81
2023/03/04 13:14:22;;;;;;;86.75;43.78;;;;;;;;;;5070851;28;20505;-81
2023/03/04 13:16:48;;;;;;;24.25;16.15;;;;;;;;;;5052594;28;20029;-81
2023/03/04 13:19:32;;;;;;;14.68;10.70;;;;;;;;;;5034146;28;20119;-81
2023/03/04 13:21:57;;;;;;;14.23;11.40;;;;;;;;;;5019222;28;20069;-81
2023/03/04 13:24:42;;;;;;;12.63;10.20;;;;;;;;;;5027632;28;20063;-81
2023/03/04 13:27:28;;;;;;;13.07;10.68;;;;;;;;;;5018045;28;20045;-81
2023/03/04 13:29:54;;;;;;;13.27;10.45;;;;;;;;;;5052328;28;20037;-81
2023/03/04 13:32:35;;;;;;;12.32;9.88;;;;;;;;;;5052862;28;20063;-81
2023/03/04 13:35:01;;;;;;;11.93;8.98;;;;;;;;;;5024674;28;20036;-81
2023/03/04 13:37:33;;;;;;;13.10;8.75;;;;;;;;;;5035705;28;20471;-81
2023/03/04 13:40:18;;;;;;;11.52;9.10;;;;;;;;;;5034654;28;20094;-81
2023/03/04 13:42:43;;;;;;;10.77;9.20;;;;;;;;;;5053265;28;20041;-79
2023/03/04 13:45:28;;;;;;;13.70;9.00;;;;;;;;;;5052386;28;20036;-80
2023/03/04 13:47:54;;;;;;;10.77;8.25;;;;;;;;;;5041415;28;20036;-81
2023/03/04 13:50:30;;;;;;;14.13;8.93;;;;;;;;;;5034348;28;20514;-80
2023/03/04 13:53:00;;;;;;;12.27;8.70;;;;;;;;;;5017624;28;20527;-81
2023/03/04 13:55:38;;;;;;;12.25;8.95;;;;;;;;;;5031633;28;20050;-80
2023/03/04 13:58:36;;;;;;;10.35;7.68;;;;;;;;;;5033259;28;20041;-80
2023/03/04 14:01:01;;;;;;;9.13;7.93;;;;;;;;;;5006622;28;20102;-82
2023/03/04 14:03:28;;;;;;;10.75;8.15;;;;;;;;;;5033239;28;20025;-80
2023/03/04 14:06:12;;;;;;;9.90;7.95;;;;;;;;;;5033272;28;20037;-80
2023/03/04 14:08:38;;;;;;;10.27;8.15;;;;;;;;;;5032996;28;20571;-80
2023/03/04 14:11:03;;;;;;;10.57;8.32;;;;;;;;;;5033018;28;20116;-80
2023/03/04 14:13:29;;;;;;;10.15;7.68;;;;;;;;;;5051044;28;20082;-80
2023/03/04 14:15:55;;;;;;;11.18;7.72;;;;;;;;;;5032156;28;20036;-81
2023/03/04 14:18:23;;;;;;;10.82;8.07;;;;;;;;;;5032767;28;20040;-81
2023/03/04 14:20:49;;;;;;;10.00;7.13;;;;;;;;;;5033478;28;20025;-82
2023/03/04 14:23:28;;;;;;;9.15;7.70;;;;;;;;;;5032629;28;20493;-81
2023/03/04 14:26:06;;;;;;;9.43;7.88;;;;;;;;;;5032459;28;20522;-80
2023/03/04 14:28:32;;;;;;;10.52;7.53;;;;;;;;;;5022477;28;20064;-80
2023/03/04 14:30:57;;;;;;;10.13;7.75;;;;;;;;;;5050650;28;20059;-80
2023/03/04 14:33:23;;;;;;;10.60;7.63;;;;;;;;;;5050659;28;20052;-80
2023/03/04 14:35:52;;;;;;;9.88;7.28;;;;;;;;;;5032433;28;20039;-80
2023/03/04 14:38:25;;;;;;;8.98;7.50;;;;;;;;;;5012831;28;20037;-80
2023/03/04 14:40:52;;;;;;;9.27;7.07;;;;;;;;;;5029792;28;20033;-80
2023/03/04 14:43:18;;;;;;;9.88;7.03;;;;;;;;;;5032715;28;20036;-81